Time;durP1;ratioP1;P1;durP2;ratioP2;P2;SDS_P1;SDS_P2;PMS_P1;PMS_P2;Temp;Humidity;BMP_temperature;BMP_pressure;BME280_temperature;BME280_humidity;BME280_pressure;Samples;Min_cycle;Max_cycle;Signal;HPM_P1;HPM_P2
2023/01/26 00:02:07;;;;;;;22.17;15.33;;;;;;;-2.20;100.00;97499.28;4989939;28;20231;-63
2023/01/26 00:04:34;;;;;;;22.10;15.17;;;;;;;-2.21;100.00;97499.34;5007011;28;20600;-64
2023/01/26 00:07:02;;;;;;;22.97;15.73;;;;;;;-2.25;100.00;97493.53;4966743;28;20204;-65
2023/01/26 00:09:29;;;;;;;20.90;16.00;;;;;;;-2.16;100.00;97486.09;4984918;28;20851;-65
2023/01/26 00:11:58;;;;;;;23.90;16.03;;;;;;;-2.23;100.00;97485.63;4990370;28;20208;-66
2023/01/26 00:14:26;;;;;;;22.03;15.37;;;;;;;-2.36;100.00;97476.03;5006289;28;20219;-63
2023/01/26 00:16:53;;;;;;;22.13;16.10;;;;;;;-2.37;100.00;97483.91;4982191;28;20234;-66
2023/01/26 00:19:21;;;;;;;18.30;14.80;;;;;;;-2.33;100.00;97483.63;5006851;28;20461;-63
2023/01/26 00:21:48;;;;;;;20.50;15.70;;;;;;;-2.36;100.00;97477.78;4962724;28;20220;-66
2023/01/26 00:24:16;;;;;;;18.83;15.17;;;;;;;-2.37;100.00;97476.97;5007744;28;20647;-63
2023/01/26 00:26:43;;;;;;;21.10;15.70;;;;;;;-2.34;100.00;97481.97;5007949;28;20623;-65
2023/01/26 00:29:12;;;;;;;21.33;14.37;;;;;;;-2.33;100.00;97478.44;4986959;28;20235;-64
2023/01/26 00:31:40;;;;;;;21.50;15.97;;;;;;;-2.31;100.00;97490.47;4985842;28;20216;-65
2023/01/26 00:34:07;;;;;;;21.37;15.73;;;;;;;-2.27;100.00;97487.63;5005711;28;20731;-63
2023/01/26 00:36:36;;;;;;;23.47;15.47;;;;;;;-2.35;100.00;97493.28;5004137;28;20508;-64
2023/01/26 00:39:04;;;;;;;21.80;15.37;;;;;;;-2.37;100.00;97479.56;4963764;28;20251;-63
2023/01/26 00:44:17;;;;;;;20.53;14.73;;;;;;;-2.39;100.00;97471.03;4984654;28;20201;-65
2023/01/26 00:46:45;;;;;;;23.00;14.97;;;;;;;-2.35;100.00;97477.69;5008383;28;20462;-65
2023/01/26 00:49:13;;;;;;;21.83;16.07;;;;;;;-2.69;100.00;97466.81;4988948;28;20317;-63
2023/01/26 00:51:40;;;;;;;22.57;15.97;;;;;;;-2.68;100.00;97463.28;5005937;28;20629;-65
2023/01/26 00:54:08;;;;;;;23.07;15.53;;;;;;;-2.75;100.00;97456.81;4962140;28;20228;-63
2023/01/26 00:56:35;;;;;;;20.30;14.87;;;;;;;-2.53;100.00;97463.25;5005374;28;20212;-64
2023/01/26 00:59:04;;;;;;;22.27;14.03;;;;;;;-2.59;100.00;97458.44;4989063;28;20604;-64
2023/01/26 01:01:33;;;;;;;22.13;16.10;;;;;;;-2.51;100.00;97456.22;5005339;28;20283;-65
2023/01/26 01:04:01;;;;;;;21.07;16.23;;;;;;;-2.48;100.00;97461.22;4987252;28;20408;-64
2023/01/26 01:06:28;;;;;;;19.47;14.50;;;;;;;-2.32;100.00;97455.91;4981519;28;20411;-63
2023/01/26 01:08:56;;;;;;;21.07;14.57;;;;;;;-2.31;100.00;97454.16;5009697;28;20224;-65
2023/01/26 01:11:23;;;;;;;17.93;13.43;;;;;;;-2.35;100.00;97454.34;4936968;28;20239;-63
2023/01/26 01:13:51;;;;;;;22.87;14.03;;;;;;;-2.33;100.00;97446.44;4986965;28;20254;-65
2023/01/26 01:16:19;;;;;;;21.83;14.47;;;;;;;-2.30;100.00;97451.44;5005706;28;20247;-64
2023/01/26 01:18:48;;;;;;;23.50;15.03;;;;;;;-2.35;100.00;97448.31;4986180;28;21261;-66
2023/01/26 01:21:17;;;;;;;19.40;14.47;;;;;;;-2.34;100.00;97448.22;5002104;28;20215;-65
2023/01/26 01:23:44;;;;;;;21.20;15.40;;;;;;;-2.36;100.00;97444.03;5004307;28;20227;-64
2023/01/26 01:26:13;;;;;;;20.83;15.17;;;;;;;-2.34;100.00;97448.22;4965597;28;20208;-64
2023/01/26 01:28:41;;;;;;;20.67;14.87;;;;;;;-2.23;100.00;97444.94;5000945;28;20311;-63
2023/01/26 01:31:10;;;;;;;22.47;14.53;;;;;;;-2.24;100.00;97439.84;4989224;28;20219;-63
2023/01/26 01:33:38;;;;;;;21.73;15.30;;;;;;;-2.26;100.00;97442.56;5005629;28;20235;-63
2023/01/26 01:36:09;;;;;;;21.30;15.37;;;;;;;-2.29;100.00;97449.69;4989652;28;20215;-64
2023/01/26 01:38:37;;;;;;;22.73;15.77;;;;;;;-2.34;100.00;97449.97;5004027;28;20228;-64
2023/01/26 01:41:05;;;;;;;23.87;16.00;;;;;;;-2.35;100.00;97441.38;4959790;28;21471;-65
2023/01/26 01:43:32;;;;;;;21.30;14.37;;;;;;;-2.35;100.00;97435.31;5008450;28;20208;-63
2023/01/26 01:46:01;;;;;;;20.73;15.23;;;;;;;-2.35;100.00;97425.78;4982265;28;20317;-65
2023/01/26 01:48:31;;;;;;;21.43;15.07;;;;;;;-2.62;100.00;97429.19;5008645;28;20240;-63
2023/01/26 01:51:04;;;;;;;21.13;14.73;;;;;;;-2.60;100.00;97436.03;4991619;28;20403;-65
2023/01/26 01:53:37;;;;;;;20.13;15.37;;;;;;;-2.42;100.00;97428.88;5007170;28;20231;-63
2023/01/26 01:56:08;;;;;;;19.57;14.77;;;;;;;-2.37;100.00;97416.44;4963212;28;20567;-65
2023/01/26 01:58:38;;;;;;;20.50;14.87;;;;;;;-2.37;100.00;97404.28;5008042;28;20231;-63
2023/01/26 02:01:06;;;;;;;23.47;15.87;;;;;;;-2.34;100.00;97411.03;4988630;28;20620;-64
2023/01/26 02:03:34;;;;;;;21.20;15.43;;;;;;;-2.44;100.00;97410.81;4986458;28;20208;-63
2023/01/26 02:06:06;;;;;;;20.43;13.93;;;;;;;-2.50;100.00;97401.63;4993924;28;20208;-65
2023/01/26 02:08:36;;;;;;;22.43;14.07;;;;;;;-2.53;100.00;97398.38;5004842;28;20643;-62
2023/01/26 02:11:06;;;;;;;19.63;14.40;;;;;;;-2.51;100.00;97404.31;5012258;28;20544;-61
2023/01/26 02:13:34;;;;;;;19.93;13.73;;;;;;;-2.53;100.00;97399.25;4955990;28;20522;-63
2023/01/26 02:16:03;;;;;;;18.60;13.13;;;;;;;-2.59;100.00;97406.56;5008040;28;20216;-65
2023/01/26 02:18:31;;;;;;;19.90;14.40;;;;;;;-2.56;100.00;97401.19;4987266;28;20227;-62
2023/01/26 02:21:00;;;;;;;21.43;14.43;;;;;;;-2.56;100.00;97393.41;4992158;28;20487;-63
2023/01/26 02:23:40;;;;;;;21.60;15.50;;;;;;;-2.54;100.00;97394.13;5006216;28;20215;-62
2023/01/26 02:26:11;;;;;;;20.87;14.47;;;;;;;-2.51;100.00;97387.00;5008366;28;20209;-65
2023/01/26 02:28:39;;;;;;;20.20;14.30;;;;;;;-2.45;100.00;97379.75;4965376;28;20388;-61
2023/01/26 02:31:07;;;;;;;16.07;12.60;;;;;;;-2.44;100.00;97377.06;5006564;28;20756;-64
2023/01/26 02:33:35;;;;;;;18.33;12.63;;;;;;;-2.40;100.00;97375.94;4989322;28;20450;-63
2023/01/26 02:36:04;;;;;;;20.63;14.37;;;;;;;-2.41;100.00;97374.28;5011712;28;20230;-65
2023/01/26 02:38:39;;;;;;;19.33;13.83;;;;;;;-2.38;100.00;97383.63;4990752;28;20259;-60
2023/01/26 02:41:10;;;;;;;20.47;14.53;;;;;;;-2.47;100.00;97377.25;5011549;28;20230;-64
2023/01/26 02:43:37;;;;;;;16.73;13.77;;;;;;;-2.50;100.00;97364.47;4962616;28;20558;-62
2023/01/26 02:46:05;;;;;;;22.83;14.50;;;;;;;-2.41;100.00;97368.25;5010476;28;20214;-64
2023/01/26 02:51:18;;;;;;;17.97;13.67;;;;;;;-2.51;100.00;97362.81;5006845;28;20223;-63
2023/01/26 02:53:45;;;;;;;17.60;13.83;;;;;;;-2.54;100.00;97365.59;4982922;28;20239;-66
2023/01/26 02:56:13;;;;;;;21.33;14.77;;;;;;;-2.63;100.00;97357.47;5010292;28;20227;-65
2023/01/26 02:58:41;;;;;;;19.93;14.10;;;;;;;-2.53;100.00;97360.31;4962278;28;20239;-64
2023/01/26 03:01:08;;;;;;;20.93;15.00;;;;;;;-2.55;100.00;97357.00;5010115;28;20224;-61
2023/01/26 03:03:43;;;;;;;18.57;14.40;;;;;;;-2.58;100.00;97361.53;4985356;28;20208;-63
2023/01/26 03:06:12;;;;;;;22.87;14.40;;;;;;;-2.54;100.00;97363.00;5009333;28;20199;-64
2023/01/26 03:08:40;;;;;;;21.97;14.03;;;;;;;-2.49;100.00;97366.97;4987229;28;20234;-63
2023/01/26 03:11:08;;;;;;;22.03;15.30;;;;;;;-2.45;100.00;97364.19;5009348;28;20283;-63
2023/01/26 03:13:37;;;;;;;19.03;14.23;;;;;;;-2.47;100.00;97357.31;4959274;28;20208;-65
2023/01/26 03:16:07;;;;;;;22.23;14.57;;;;;;;-2.42;100.00;97362.22;5004091;28;20839;-66
2023/01/26 03:29:40;;;;;;;23.77;15.30;;;;;;;-2.48;100.00;97349.63;4962835;28;20588;-64
2023/01/26 03:32:08;;;;;;;19.27;14.63;;;;;;;-2.60;100.00;97346.06;5003338;28;20266;-67
2023/01/26 03:34:35;;;;;;;19.07;13.07;;;;;;;-2.60;100.00;97347.81;4993931;28;20929;-63
2023/01/26 03:37:03;;;;;;;20.30;14.30;;;;;;;-2.71;100.00;97341.56;5004298;28;20212;-67
2023/01/26 03:56:16;;;;;;;24.10;16.23;;;;;;;-2.57;100.00;97345.88;5010060;28;20218;-67
2023/01/26 03:58:44;;;;;;;21.00;14.17;;;;;;;-2.56;100.00;97350.13;4959717;28;21071;-66
2023/01/26 04:01:18;;;;;;;20.40;14.13;;;;;;;-2.48;100.00;97347.03;5010413;28;20208;-64
2023/01/26 04:09:18;;;;;;;20.93;13.87;;;;;;;-2.50;100.00;97349.75;4996793;28;20758;-64
2023/01/26 04:11:46;;;;;;;23.00;14.10;;;;;;;-2.54;100.00;97344.84;4979112;28;20472;-66
2023/01/26 04:22:47;;;;;;;21.33;14.67;;;;;;;-2.77;100.00;97337.59;4986758;28;20773;-67
2023/01/26 04:25:16;;;;;;;19.23;13.87;;;;;;;-2.71;100.00;97344.16;4990870;28;20707;-65
2023/01/26 04:27:45;;;;;;;20.27;13.27;;;;;;;-2.63;100.00;97330.72;5000969;28;20208;-66
2023/01/26 04:30:14;;;;;;;22.27;13.30;;;;;;;-2.64;100.00;97332.44;4983932;28;20236;-64
2023/01/26 04:32:43;;;;;;;16.83;13.13;;;;;;;-2.44;100.00;97332.97;5009188;28;20826;-65
2023/01/26 04:35:10;;;;;;;19.67;13.73;;;;;;;-2.52;100.00;97332.59;5009375;28;20429;-64
2023/01/26 04:37:39;;;;;;;16.03;12.63;;;;;;;-2.54;100.00;97332.72;4987570;28;20333;-65
2023/01/26 04:40:07;;;;;;;15.77;12.23;;;;;;;-2.40;100.00;97324.03;5004620;28;20221;-65
2023/01/26 04:42:35;;;;;;;21.43;14.50;;;;;;;-2.42;100.00;97317.28;4988054;28;20544;-66
2023/01/26 04:45:03;;;;;;;17.53;13.13;;;;;;;-2.45;100.00;97318.31;4957348;28;20923;-65
2023/01/26 04:47:31;;;;;;;18.33;12.97;;;;;;;-2.40;100.00;97321.44;5004431;28;20196;-65
2023/01/26 04:50:00;;;;;;;19.33;11.97;;;;;;;-2.55;100.00;97309.44;5004142;28;20227;-65
2023/01/26 04:52:27;;;;;;;16.00;12.63;;;;;;;-2.51;100.00;97316.09;4979919;28;21255;-63
2023/01/26 04:54:55;;;;;;;13.00;10.87;;;;;;;-2.60;100.00;97308.91;5001908;28;20212;-66
2023/01/26 04:57:23;;;;;;;15.50;11.37;;;;;;;-2.71;100.00;97304.41;4988037;28;20263;-63
2023/01/26 04:59:50;;;;;;;15.20;11.37;;;;;;;-2.67;100.00;97303.28;4964213;28;20237;-63
2023/01/26 05:02:18;;;;;;;13.67;10.50;;;;;;;-2.45;100.00;97309.69;5000190;28;20549;-64
2023/01/26 05:04:46;;;;;;;15.43;11.43;;;;;;;-2.49;100.00;97320.25;5006167;28;20215;-64
2023/01/26 05:07:15;;;;;;;14.33;10.07;;;;;;;-2.54;100.00;97305.91;4993809;28;20196;-63
2023/01/26 05:09:42;;;;;;;13.40;9.87;;;;;;;-2.68;100.00;97312.84;4995776;28;20707;-63
2023/01/26 05:14:55;;;;;;;14.60;10.53;;;;;;;-2.60;100.00;97311.50;5004497;28;20235;-65
2023/01/26 05:17:22;;;;;;;13.97;10.30;;;;;;;-2.64;100.00;97309.09;4964474;28;20436;-66
2023/01/26 05:19:50;;;;;;;18.37;11.23;;;;;;;-2.47;100.00;97312.38;5010084;28;20612;-66
2023/01/26 05:22:19;;;;;;;15.40;11.93;;;;;;;-2.38;100.00;97318.72;5006988;28;20220;-65
2023/01/26 05:24:46;;;;;;;17.93;12.30;;;;;;;-2.39;100.00;97324.84;4991542;28;20204;-64
2023/01/26 05:27:23;;;;;;;13.90;11.80;;;;;;;-2.32;100.00;97323.53;5000011;28;20196;-64
2023/01/26 05:29:51;;;;;;;15.30;11.87;;;;;;;-2.31;100.00;97326.97;5008670;28;20220;-62
2023/01/26 05:32:19;;;;;;;14.70;11.57;;;;;;;-2.36;100.00;97320.31;4963130;28;21214;-65
2023/01/26 05:34:46;;;;;;;14.90;11.13;;;;;;;-2.42;100.00;97320.72;5001959;28;20204;-64
2023/01/26 05:37:14;;;;;;;15.83;10.90;;;;;;;-2.29;100.00;97312.13;5008840;28;20227;-65
2023/01/26 05:39:43;;;;;;;14.60;10.53;;;;;;;-2.23;100.00;97324.69;4989083;28;20243;-63
2023/01/26 05:42:11;;;;;;;14.97;10.63;;;;;;;-2.30;100.00;97319.06;5005152;28;20599;-65
2023/01/26 05:44:39;;;;;;;12.57;10.53;;;;;;;-2.32;100.00;97315.72;4988612;28;20223;-66
2023/01/26 05:47:06;;;;;;;14.30;11.03;;;;;;;-2.33;100.00;97301.94;4963341;28;20514;-66
2023/01/26 05:49:34;;;;;;;16.77;11.13;;;;;;;-2.28;100.00;97317.19;5006305;28;20224;-65
2023/01/26 05:52:01;;;;;;;13.77;10.90;;;;;;;-2.24;100.00;97317.84;5002494;28;20301;-67
2023/01/26 05:54:29;;;;;;;14.00;10.57;;;;;;;-2.27;100.00;97311.09;5004178;28;20216;-65
2023/01/26 05:56:58;;;;;;;13.30;10.53;;;;;;;-2.23;100.00;97307.38;4994012;28;20422;-67
2023/01/26 05:59:25;;;;;;;14.83;10.63;;;;;;;-2.19;100.00;97305.38;4989325;28;20231;-66
2023/01/26 06:01:53;;;;;;;15.93;11.37;;;;;;;-2.16;100.00;97306.97;4950647;28;20545;-67
2023/01/26 06:04:21;;;;;;;19.40;13.27;;;;;;;-2.30;100.00;97319.06;5007042;28;20205;-67
2023/01/26 06:06:48;;;;;;;14.33;10.70;;;;;;;-2.22;100.00;97311.63;4987764;28;20421;-67
2023/01/26 06:09:16;;;;;;;16.17;11.27;;;;;;;-2.08;100.00;97315.06;4987840;28;20236;-62
2023/01/26 06:11:43;;;;;;;14.17;10.53;;;;;;;-2.17;100.00;97313.09;4987906;28;20212;-66
2023/01/26 06:14:13;;;;;;;13.57;9.37;;;;;;;-2.25;100.00;97305.78;5008094;28;21279;-64
2023/01/26 06:16:40;;;;;;;16.40;12.00;;;;;;;-2.32;100.00;97320.94;4966624;28;21597;-63
2023/01/26 06:19:09;;;;;;;16.23;11.97;;;;;;;-2.22;100.00;97314.22;5007964;28;20790;-63
2023/01/26 06:21:37;;;;;;;15.93;11.23;;;;;;;-2.19;100.00;97310.56;4989141;28;20691;-63
2023/01/26 06:24:05;;;;;;;14.90;11.50;;;;;;;-2.19;100.00;97318.38;5013253;28;20215;-64
2023/01/26 06:26:33;;;;;;;16.13;11.30;;;;;;;-2.33;100.00;97314.06;4988521;28;20823;-64
2023/01/26 06:29:01;;;;;;;17.10;11.50;;;;;;;-2.39;100.00;97304.94;5011014;28;20224;-64
2023/01/26 06:31:30;;;;;;;14.83;11.23;;;;;;;-2.37;100.00;97303.06;5003718;28;20639;-65
2023/01/26 06:33:57;;;;;;;16.07;11.83;;;;;;;-2.35;100.00;97309.00;4965088;28;20212;-64
2023/01/26 06:36:27;;;;;;;17.03;11.70;;;;;;;-2.35;100.00;97313.34;4983690;28;20808;-64
2023/01/26 06:38:54;;;;;;;16.43;11.87;;;;;;;-2.36;100.00;97307.34;5005694;28;20582;-64
2023/01/26 06:41:24;;;;;;;17.63;11.30;;;;;;;-2.41;100.00;97291.22;4983672;28;20406;-64
2023/01/26 06:43:52;;;;;;;17.90;11.97;;;;;;;-2.20;100.00;97309.75;5005941;28;20205;-64
2023/01/26 06:46:19;;;;;;;18.63;11.60;;;;;;;-2.18;100.00;97301.84;5005148;28;20208;-64
2023/01/26 06:48:49;;;;;;;17.07;10.87;;;;;;;-2.32;100.00;97310.53;4964719;28;20232;-64
2023/01/26 06:51:44;;;;;;;15.60;11.77;;;;;;;-2.40;100.00;97305.03;4998119;28;20212;-65
2023/01/26 06:54:13;;;;;;;18.40;13.20;;;;;;;-2.40;100.00;97299.84;4985239;28;20730;-64
2023/01/26 06:56:41;;;;;;;17.47;13.33;;;;;;;-2.42;100.00;97314.69;5007177;28;20442;-64
2023/01/26 06:59:09;;;;;;;16.77;12.30;;;;;;;-2.47;100.00;97310.63;4987050;28;20232;-63
2023/01/26 07:01:39;;;;;;;22.90;14.70;;;;;;;-2.34;100.00;97302.88;5005067;28;20208;-64
2023/01/26 07:04:08;;;;;;;17.13;12.03;;;;;;;-2.26;100.00;97311.91;4967897;28;20209;-64
2023/01/26 07:06:35;;;;;;;19.63;12.90;;;;;;;-2.16;100.00;97312.16;5003748;28;20357;-64
2023/01/26 07:09:03;;;;;;;15.87;11.90;;;;;;;-2.14;100.00;97305.09;4989237;28;20731;-64
2023/01/26 07:11:31;;;;;;;18.07;14.37;;;;;;;-2.19;100.00;97311.44;5006331;28;20444;-65
2023/01/26 07:13:59;;;;;;;18.13;12.27;;;;;;;-2.22;100.00;97310.78;4988965;28;20487;-66
2023/01/26 07:16:26;;;;;;;16.00;12.50;;;;;;;-2.15;100.00;97296.47;5004834;28;20204;-64
2023/01/26 07:18:54;;;;;;;17.87;12.57;;;;;;;-2.16;100.00;97305.19;5010894;28;20224;-63
2023/01/26 07:21:23;;;;;;;14.87;12.17;;;;;;;-2.15;100.00;97296.47;4961893;28;20223;-63
2023/01/26 07:23:52;;;;;;;14.80;11.90;;;;;;;-2.14;100.00;97302.50;4992592;28;20314;-62
2023/01/26 07:26:20;;;;;;;18.63;12.37;;;;;;;-2.22;100.00;97295.22;5004965;28;20230;-63
2023/01/26 07:28:47;;;;;;;20.43;13.47;;;;;;;-2.21;100.00;97299.47;5009567;28;20216;-63
2023/01/26 07:31:15;;;;;;;16.60;12.40;;;;;;;-2.21;100.00;97297.72;4988079;28;20223;-63
2023/01/26 07:33:43;;;;;;;16.13;12.27;;;;;;;-2.08;100.00;97300.34;5004277;28;20224;-64
2023/01/26 07:36:11;;;;;;;17.23;13.57;;;;;;;-2.19;100.00;97295.84;4958180;28;20208;-62
2023/01/26 07:38:40;;;;;;;21.03;14.60;;;;;;;-2.26;100.00;97306.72;4975853;28;20475;-62
2023/01/26 07:41:09;;;;;;;22.27;14.20;;;;;;;-2.28;100.00;97303.41;5007183;28;20200;-62
2023/01/26 07:43:37;;;;;;;19.60;15.53;;;;;;;-2.30;100.00;97294.88;4988853;28;20445;-62
2023/01/26 07:46:05;;;;;;;20.20;14.13;;;;;;;-2.30;100.00;97303.50;4982943;28;20216;-62
2023/01/26 07:48:33;;;;;;;18.73;12.93;;;;;;;-2.33;100.00;97304.53;5004510;28;20365;-63
2023/01/26 07:51:02;;;;;;;16.63;12.17;;;;;;;-2.38;100.00;97300.56;4967825;28;20216;-62
2023/01/26 07:53:32;;;;;;;15.13;12.57;;;;;;;-2.24;100.00;97303.13;4986499;28;20719;-63
2023/01/26 07:56:11;;;;;;;15.40;11.33;;;;;;;-2.20;100.00;97295.94;5005794;28;20599;-63
2023/01/26 07:58:38;;;;;;;17.60;11.87;;;;;;;-2.23;100.00;97304.78;4989962;28;20274;-63
2023/01/26 08:01:08;;;;;;;19.17;12.67;;;;;;;-2.32;100.00;97302.75;4988466;28;20604;-62
2023/01/26 08:03:36;;;;;;;17.27;11.27;;;;;;;-2.28;100.00;97293.03;5005257;28;20313;-63
2023/01/26 08:06:04;;;;;;;15.87;11.30;;;;;;;-2.16;100.00;97296.56;4968899;28;20592;-62
2023/01/26 08:08:32;;;;;;;14.67;11.03;;;;;;;-2.16;100.00;97289.59;5003369;28;20248;-62
2023/01/26 08:11:01;;;;;;;19.77;13.00;;;;;;;-2.10;100.00;97296.16;4991167;28;20681;-62
2023/01/26 08:13:31;;;;;;;16.60;11.90;;;;;;;-1.99;100.00;97298.88;4991710;28;20196;-63
2023/01/26 08:16:03;;;;;;;15.33;11.90;;;;;;;-2.05;100.00;97297.53;4989332;28;20516;-63
2023/01/26 08:18:31;;;;;;;15.27;12.37;;;;;;;-1.86;100.00;97301.50;5005925;28;20776;-63
2023/01/26 08:20:59;;;;;;;17.60;12.77;;;;;;;-1.86;100.00;97300.66;4966969;28;20208;-63
2023/01/26 08:23:27;;;;;;;133.90;78.57;;;;;;;-1.91;100.00;97303.56;5000773;28;20330;-63
2023/01/26 08:25:54;;;;;;;78.20;46.73;;;;;;;-1.80;100.00;97300.25;4984411;28;20600;-62
2023/01/26 08:28:22;;;;;;;18.77;14.00;;;;;;;-1.80;100.00;97293.28;4999689;28;20740;-63
2023/01/26 08:30:51;;;;;;;15.37;11.53;;;;;;;-1.88;100.00;97303.34;4989808;28;20690;-64
2023/01/26 08:33:18;;;;;;;17.73;12.50;;;;;;;-1.95;100.00;97291.72;4986441;28;20236;-62
2023/01/26 08:35:46;;;;;;;19.70;11.67;;;;;;;-1.96;100.00;97295.25;5005970;28;20279;-63
2023/01/26 08:38:14;;;;;;;14.73;11.23;;;;;;;-1.92;100.00;97294.09;4959342;28;20232;-62
2023/01/26 08:40:41;;;;;;;14.70;11.03;;;;;;;-2.01;100.00;97292.94;4992114;28;20231;-64
2023/01/26 08:43:09;;;;;;;13.93;11.03;;;;;;;-2.00;100.00;97296.41;5002599;28;20212;-62
2023/01/26 08:45:36;;;;;;;13.77;9.83;;;;;;;-2.04;100.00;97298.34;4988848;28;20434;-65
2023/01/26 08:48:06;;;;;;;14.30;9.97;;;;;;;-2.06;100.00;97290.69;4983587;28;20696;-62
2023/01/26 08:50:34;;;;;;;14.57;10.70;;;;;;;-2.02;100.00;97287.88;5004695;28;20417;-65
2023/01/26 08:53:01;;;;;;;14.63;10.53;;;;;;;-1.99;100.00;97295.47;4965465;28;20212;-65
2023/01/26 08:55:31;;;;;;;14.53;10.73;;;;;;;-1.80;100.00;97292.47;4983554;28;20954;-65
2023/01/26 08:57:59;;;;;;;14.93;9.80;;;;;;;-1.80;100.00;97277.69;4986742;28;20316;-60
2023/01/26 09:00:27;;;;;;;17.50;12.13;;;;;;;-1.94;100.00;97286.41;4963843;28;20243;-63
2023/01/26 09:02:58;;;;;;;14.33;11.00;;;;;;;-1.92;100.00;97278.53;4992844;28;20212;-63
2023/01/26 09:05:28;;;;;;;13.90;10.60;;;;;;;-1.94;100.00;97273.41;5006546;28;20329;-63
2023/01/26 09:07:55;;;;;;;14.67;9.67;;;;;;;-1.94;100.00;97291.59;4942224;28;20297;-63
2023/01/26 09:10:23;;;;;;;13.70;10.13;;;;;;;-1.88;100.00;97287.78;5004974;28;20225;-63
2023/01/26 09:12:51;;;;;;;15.07;11.27;;;;;;;-1.87;100.00;97292.03;4991602;28;20244;-63
2023/01/26 09:15:18;;;;;;;13.67;11.23;;;;;;;-1.85;100.00;97287.56;4989165;28;22653;-63
2023/01/26 09:17:48;;;;;;;13.17;10.67;;;;;;;-1.79;100.00;97279.34;5011629;28;20203;-63
2023/01/26 09:20:16;;;;;;;14.87;12.80;;;;;;;-1.76;100.00;97280.91;4987717;28;20230;-63
2023/01/26 09:22:46;;;;;;;14.43;10.37;;;;;;;-1.70;100.00;97284.88;5010524;28;20213;-62
2023/01/26 09:25:14;;;;;;;17.50;12.13;;;;;;;-1.64;100.00;97280.06;4966154;28;20449;-63
2023/01/26 09:27:42;;;;;;;15.80;12.73;;;;;;;-1.57;100.00;97274.44;5008420;28;20204;-63
2023/01/26 09:30:11;;;;;;;12.40;10.47;;;;;;;-1.64;100.00;97276.66;4975504;28;20227;-64
2023/01/26 09:32:38;;;;;;;11.37;9.80;;;;;;;-1.55;100.00;97278.63;5010645;28;20258;-63
2023/01/26 09:35:10;;;;;;;12.20;10.37;;;;;;;-1.66;100.00;97283.72;4986827;28;20212;-63
2023/01/26 09:37:42;;;;;;;12.77;9.90;;;;;;;-1.66;100.00;97278.53;5008788;28;20607;-63
2023/01/26 09:40:16;;;;;;;15.17;10.00;;;;;;;-1.66;100.00;97281.13;4964196;28;20243;-63
2023/01/26 09:42:54;;;;;;;10.27;8.47;;;;;;;-1.79;100.00;97281.94;5007332;28;20420;-63
2023/01/26 09:45:29;;;;;;;9.97;8.80;;;;;;;-1.68;100.00;97278.63;4965258;28;20232;-63
2023/01/26 09:48:16;;;;;;;11.83;9.03;;;;;;;-1.60;100.00;97273.72;5005151;28;20212;-64
2023/01/26 09:50:49;;;;;;;10.20;8.53;;;;;;;-1.55;100.00;97273.44;4994495;28;20217;-62
2023/01/26 09:53:20;;;;;;;13.03;10.00;;;;;;;-1.52;100.00;97268.00;5004661;28;20489;-63
2023/01/26 09:55:49;;;;;;;11.73;9.30;;;;;;;-1.52;100.00;97278.41;4972619;28;20467;-63
2023/01/26 09:58:20;;;;;;;10.40;8.43;;;;;;;-1.56;100.00;97260.53;4992798;28;20319;-62
2023/01/26 10:00:49;;;;;;;11.07;8.50;;;;;;;-1.53;100.00;97268.09;5008722;28;20208;-59
2023/01/26 10:03:25;;;;;;;10.27;8.53;;;;;;;-1.49;100.00;97265.19;4987721;28;20254;-61
2023/01/26 10:05:58;;;;;;;11.53;9.03;;;;;;;-1.55;100.00;97262.19;4991277;28;20216;-64
2023/01/26 10:08:26;;;;;;;13.63;11.50;;;;;;;-1.69;100.00;97255.38;5004131;28;20638;-62
2023/01/26 10:10:58;;;;;;;12.53;11.00;;;;;;;-1.71;100.00;97257.22;4968361;28;20699;-63
2023/01/26 10:13:27;;;;;;;10.17;8.93;;;;;;;-1.77;100.00;97258.47;4993174;28;20438;-60
2023/01/26 10:15:58;;;;;;;11.63;9.60;;;;;;;-1.70;100.00;97254.53;4982777;28;20439;-62
2023/01/26 10:18:31;;;;;;;9.77;8.57;;;;;;;-1.57;100.00;97257.09;4990690;28;20239;-62
2023/01/26 10:21:00;;;;;;;11.83;8.90;;;;;;;-1.55;100.00;97256.97;4989694;28;20480;-62
2023/01/26 10:23:29;;;;;;;14.73;10.47;;;;;;;-1.57;100.00;97251.06;5007427;28;20298;-65
2023/01/26 10:26:09;;;;;;;10.70;8.07;;;;;;;-1.56;100.00;97256.16;4964124;28;21478;-65
2023/01/26 10:28:37;;;;;;;11.40;8.93;;;;;;;-1.55;100.00;97249.19;5006904;28;20212;-63
2023/01/26 10:31:09;;;;;;;13.13;9.97;;;;;;;-1.94;100.00;97244.03;5005362;28;20220;-66
2023/01/26 10:33:37;;;;;;;12.43;9.30;;;;;;;-1.76;100.00;97258.34;4994907;28;20223;-65
2023/01/26 10:36:07;;;;;;;8.70;7.33;;;;;;;-1.52;100.00;97260.22;4989073;28;20217;-67
2023/01/26 10:38:42;;;;;;;10.40;8.27;;;;;;;-1.43;100.00;97253.56;5009073;28;20774;-65
2023/01/26 10:41:27;;;;;;;11.80;8.93;;;;;;;-1.52;100.00;97242.03;5010849;28;20275;-67
2023/01/26 10:43:56;;;;;;;9.07;7.57;;;;;;;-1.58;100.00;97252.00;4984378;28;20515;-65
2023/01/26 10:46:28;;;;;;;8.27;7.47;;;;;;;-1.49;100.00;97256.59;4994641;28;20208;-64
2023/01/26 10:48:59;;;;;;;11.83;8.90;;;;;;;-1.54;100.00;97246.50;4988858;28;20243;-65
2023/01/26 10:51:29;;;;;;;9.73;8.47;;;;;;;-1.41;100.00;97243.03;4989551;28;20393;-63
2023/01/26 10:54:14;;;;;;;8.30;7.27;;;;;;;-1.26;100.00;97243.72;5005284;28;20927;-64
2023/01/26 10:56:47;;;;;;;8.40;7.13;;;;;;;-1.35;100.00;97237.41;4983010;28;20427;-62
2023/01/26 10:59:22;;;;;;;7.90;7.03;;;;;;;-1.38;100.00;97228.06;4971597;28;20322;-64
2023/01/26 11:01:55;;;;;;;8.47;7.47;;;;;;;-1.19;100.00;97229.34;4967951;28;20591;-64
2023/01/26 11:04:24;;;;;;;8.13;7.13;;;;;;;-0.98;100.00;97224.38;4985848;28;20324;-64
2023/01/26 11:06:52;;;;;;;7.07;6.47;;;;;;;-0.88;100.00;97225.41;4992766;28;20262;-63
2023/01/26 11:09:23;;;;;;;6.97;6.27;;;;;;;-0.78;100.00;97222.94;5001410;28;20285;-65
2023/01/26 11:12:02;;;;;;;6.10;5.60;;;;;;;-0.93;100.00;97209.31;5010375;28;20292;-65
2023/01/26 11:14:31;;;;;;;5.93;5.33;;;;;;;-0.96;100.00;97217.31;4966051;28;20700;-65
2023/01/26 11:17:02;;;;;;;6.43;5.80;;;;;;;-0.67;100.00;97209.16;4987464;28;20299;-63
2023/01/26 11:19:48;;;;;;;5.60;5.10;;;;;;;-0.66;100.00;97205.59;4994767;28;20240;-65
2023/01/26 11:22:19;;;;;;;6.47;5.70;;;;;;;-0.48;100.00;97197.41;4989115;28;20931;-64
2023/01/26 11:24:51;;;;;;;8.07;7.27;;;;;;;-0.46;100.00;97203.31;5010686;28;20287;-65
2023/01/26 11:27:30;;;;;;;5.27;4.87;;;;;;;-0.51;100.00;97192.41;5008331;28;20586;-65
2023/01/26 11:30:22;;;;;;;6.07;5.47;;;;;;;-0.60;100.00;97192.13;4962876;28;20238;-63
2023/01/26 11:32:55;;;;;;;7.27;6.57;;;;;;;-0.68;100.00;97191.88;4987917;28;20546;-65
2023/01/26 11:35:30;;;;;;;6.23;5.60;;;;;;;-0.79;100.00;97189.25;4992888;28;20212;-65
2023/01/26 11:38:08;;;;;;;7.20;5.27;;;;;;;-0.89;100.00;97191.69;4988781;28;20285;-63
2023/01/26 11:40:41;;;;;;;6.23;5.63;;;;;;;-0.98;100.00;97187.97;5009108;28;20349;-65
2023/01/26 11:43:40;;;;;;;8.80;7.57;;;;;;;-1.08;100.00;97180.03;5008884;28;20612;-62
2023/01/26 11:46:19;;;;;;;18.27;10.87;;;;;;;-1.00;100.00;97189.84;4964808;28;20653;-62
2023/01/26 11:48:56;;;;;;;24.90;18.57;;;;;;;-1.02;100.00;97186.53;4992075;28;20735;-64
2023/01/26 11:51:31;;;;;;;8.13;7.37;;;;;;;-0.95;100.00;97194.75;4988041;28;20464;-64
2023/01/26 11:54:06;;;;;;;7.27;6.57;;;;;;;-0.92;100.00;97184.94;4962842;28;20208;-61
2023/01/26 11:56:41;;;;;;;6.03;5.43;;;;;;;-1.02;100.00;97183.94;5007675;28;20848;-64
2023/01/26 11:59:14;;;;;;;8.50;7.60;;;;;;;-0.92;100.00;97176.31;4970549;28;20671;-63
2023/01/26 12:01:46;;;;;;;7.33;6.30;;;;;;;-1.03;100.00;97174.47;4997566;28;20228;-64
2023/01/26 12:04:18;;;;;;;6.33;5.77;;;;;;;-0.92;100.00;97177.16;4989766;28;20471;-63
2023/01/26 12:06:47;;;;;;;8.43;5.80;;;;;;;-0.96;100.00;97175.69;4998172;28;20301;-64
2023/01/26 12:09:18;;;;;;;6.33;5.73;;;;;;;-0.96;100.00;97180.88;4987802;28;20228;-65
2023/01/26 12:11:51;;;;;;;8.37;7.60;;;;;;;-1.00;100.00;97176.84;5012040;28;20274;-65
2023/01/26 12:14:24;;;;;;;6.23;5.13;;;;;;;-1.08;100.00;97177.44;5004586;28;20427;-64